Terminal Aerodrome Forecast
Issued by NWS

Home | Current Version | Previous Version | Text Only | Print | Product List | Glossary On
Versions: 1 2 3 4 5 6 7 8 9 10 11 12 13 14
000
FTAK31 PAJN 010003 AAA
TAFAPG
TAF AMD
PAPG 010003Z 0100/0124 10010G20KT P6SM -RA SCT015 BKN025 OVC040
      WS020/15040KT
      TEMPO 0100/0104 07008KT 6SM -RA BR FEW006 BKN015 OVC025
     FM010400 10010G15KT 6SM -RA BR SCT010 OVC025
     FM011500 10010KT 3SM RA BR FEW006 OVC010
      AMD LTD TO CLD VIS AND WIND 0106/0115=

USA.gov is the U.S. government's official web portal to all federal, state and local government web resources and services.